createdAt,value
2022-11-02T00:01:41.245Z,4.93
2022-11-02T00:04:09.659Z,4.57
2022-11-02T00:06:36.893Z,5.30
2022-11-02T00:09:03.854Z,5.32
2022-11-02T00:11:30.792Z,4.60
2022-11-02T00:13:57.772Z,4.88
2022-11-02T00:16:25.700Z,4.45
2022-11-02T00:18:56.289Z,5.20
2022-11-02T00:21:25.578Z,4.75
2022-11-02T00:23:53.621Z,5.15
2022-11-02T00:26:20.791Z,4.95
2022-11-02T00:28:47.752Z,5.80
2022-11-02T00:31:14.494Z,5.53
2022-11-02T00:33:41.232Z,5.55
2022-11-02T00:36:08.349Z,5.68
2022-11-02T00:38:35.191Z,5.35
2022-11-02T00:41:02.077Z,5.40
2022-11-02T00:43:28.899Z,5.32
2022-11-02T00:45:56.489Z,5.68
2022-11-02T00:48:23.376Z,4.95
2022-11-02T00:50:50.162Z,5.50
2022-11-02T00:53:17.128Z,5.53
2022-11-02T00:55:43.825Z,5.78
2022-11-02T00:58:10.654Z,6.00
2022-11-02T01:00:37.542Z,6.43
2022-11-02T01:03:04.482Z,6.95
2022-11-02T01:05:31.181Z,6.70
2022-11-02T01:07:58.014Z,5.97
2022-11-02T01:10:26.337Z,6.40
2022-11-02T01:12:53.312Z,5.75
2022-11-02T01:15:20.173Z,6.50
2022-11-02T01:17:47.118Z,6.03
2022-11-02T01:20:14.620Z,6.13
2022-11-02T01:22:41.308Z,6.45
2022-11-02T01:25:08.717Z,6.65
2022-11-02T01:27:35.471Z,6.70
2022-11-02T01:30:04.068Z,7.28
2022-11-02T01:32:31.101Z,7.05
2022-11-02T01:34:58.022Z,7.47
2022-11-02T01:37:24.824Z,7.85
2022-11-02T01:39:51.715Z,7.18
2022-11-02T01:42:21.013Z,7.00
2022-11-02T01:44:47.963Z,7.05
2022-11-02T01:47:19.527Z,8.70
2022-11-02T01:49:49.492Z,7.40
2022-11-02T01:52:30.983Z,7.63
2022-11-02T01:55:13.095Z,9.52
2022-11-02T01:57:42.189Z,8.32
2022-11-02T02:00:12.835Z,8.57
2022-11-02T02:02:50.693Z,7.80
2022-11-02T02:05:18.500Z,7.95
2022-11-02T02:07:46.113Z,7.43
2022-11-02T02:10:13.212Z,8.77
2022-11-02T02:12:42.849Z,7.43
2022-11-02T02:15:12.793Z,8.70
2022-11-02T02:18:02.862Z,8.02
2022-11-02T02:20:38.697Z,7.95
2022-11-02T02:23:43.185Z,8.35
2022-11-02T02:26:37.466Z,8.30
2022-11-02T02:29:28.633Z,8.48
2022-11-02T02:32:11.798Z,6.88
2022-11-02T02:35:04.264Z,8.10
2022-11-02T02:37:46.084Z,8.63
2022-11-02T02:40:31.770Z,8.52
2022-11-02T02:43:15.934Z,8.15
2022-11-02T02:45:47.969Z,7.82
2022-11-02T02:48:19.873Z,9.15
2022-11-02T02:50:50.303Z,8.88
2022-11-02T02:53:25.069Z,7.47
2022-11-02T02:55:53.025Z,8.82
2022-11-02T02:58:30.898Z,8.63
2022-11-02T03:01:00.744Z,7.88
2022-11-02T03:03:30.006Z,8.02
2022-11-02T03:06:26.184Z,8.18
2022-11-02T03:09:20.821Z,10.68
2022-11-02T03:12:16.770Z,7.57
2022-11-02T03:15:02.253Z,8.43
2022-11-02T03:17:32.862Z,8.65
2022-11-02T03:20:28.883Z,7.10
2022-11-02T03:23:20.624Z,7.43
2022-11-02T03:26:05.624Z,7.88
2022-11-02T03:28:45.380Z,8.40
2022-11-02T03:31:51.272Z,8.45
2022-11-02T03:34:28.920Z,7.57
2022-11-02T03:37:34.912Z,7.43
2022-11-02T03:40:21.946Z,7.43
2022-11-02T03:42:50.969Z,10.23
2022-11-02T03:45:27.285Z,7.22
2022-11-02T03:48:02.266Z,8.85
2022-11-02T03:53:21.837Z,8.85
2022-11-02T03:55:55.102Z,8.88
2022-11-02T03:58:21.953Z,8.55
2022-11-02T04:00:54.289Z,9.32
2022-11-02T04:03:24.270Z,8.80
2022-11-02T04:05:51.477Z,9.40
2022-11-02T04:08:26.476Z,9.75
2022-11-02T04:11:12.114Z,9.95
2022-11-02T04:13:57.742Z,9.57
2022-11-02T04:16:27.627Z,9.88
2022-11-02T04:19:13.713Z,11.75
2022-11-02T04:24:46.999Z,9.90
2022-11-02T04:27:18.121Z,10.18
2022-11-02T04:29:47.592Z,9.63
2022-11-02T04:32:14.519Z,10.75
2022-11-02T04:34:41.373Z,11.38
2022-11-02T04:37:28.149Z,10.20
2022-11-02T04:39:55.046Z,9.43
2022-11-02T04:42:21.969Z,9.30
2022-11-02T04:44:48.655Z,9.52
2022-11-02T04:47:15.359Z,10.00
2022-11-02T04:49:41.981Z,9.63
2022-11-02T04:52:10.045Z,9.30
2022-11-02T04:54:36.901Z,9.05
2022-11-02T04:57:03.765Z,11.27
2022-11-02T04:59:30.411Z,9.30
2022-11-02T05:01:57.125Z,9.23
2022-11-02T05:04:23.969Z,8.13
2022-11-02T05:06:50.951Z,8.23
2022-11-02T05:09:17.912Z,8.90
2022-11-02T05:11:44.706Z,7.75
2022-11-02T05:14:11.642Z,9.05
2022-11-02T05:16:38.586Z,9.75
2022-11-02T05:19:08.356Z,7.75
2022-11-02T05:21:37.744Z,7.60
2022-11-02T05:24:04.729Z,8.23
2022-11-02T05:26:31.593Z,9.70
2022-11-02T05:28:58.462Z,7.70
2022-11-02T05:31:25.292Z,7.65
2022-11-02T05:33:52.345Z,7.70
2022-11-02T05:36:19.186Z,9.02
2022-11-02T05:38:46.125Z,7.03
2022-11-02T05:41:13.417Z,7.95
2022-11-02T05:43:40.318Z,8.05
2022-11-02T05:46:07.031Z,7.63
2022-11-02T05:48:34.091Z,8.05
2022-11-02T05:51:03.498Z,7.78
2022-11-02T05:53:32.754Z,7.43
2022-11-02T05:56:01.192Z,8.85
2022-11-02T05:58:28.988Z,7.13
2022-11-02T06:00:59.692Z,8.00
2022-11-02T06:03:26.807Z,7.45
2022-11-02T06:06:01.657Z,8.25
2022-11-02T06:08:31.394Z,6.93
2022-11-02T06:10:58.247Z,8.18
2022-11-02T06:13:25.116Z,8.35
2022-11-02T06:15:52.061Z,8.48
2022-11-02T06:18:18.897Z,6.85
2022-11-02T06:20:45.751Z,7.93
2022-11-02T06:23:14.598Z,7.75
2022-11-02T06:25:41.415Z,7.65
2022-11-02T06:28:08.002Z,7.50
2022-11-02T06:30:34.931Z,7.55
2022-11-02T06:33:06.775Z,8.52
2022-11-02T06:35:34.063Z,7.35
2022-11-02T06:38:01.065Z,7.25
2022-11-02T06:40:28.354Z,7.68
2022-11-02T06:45:46.573Z,7.63
2022-11-02T06:48:13.567Z,7.40
2022-11-02T06:50:40.446Z,7.75
2022-11-02T06:53:07.750Z,7.95
2022-11-02T06:55:34.724Z,8.23
2022-11-02T06:58:01.413Z,7.57
2022-11-02T07:00:30.361Z,8.00
2022-11-02T07:03:09.712Z,7.10
2022-11-02T07:05:37.440Z,6.82
2022-11-02T07:08:04.749Z,7.53
2022-11-02T07:10:31.996Z,7.15
2022-11-02T07:12:59.295Z,7.75
2022-11-02T07:15:27.166Z,6.93
2022-11-02T07:17:54.532Z,7.15
2022-11-02T07:20:21.929Z,6.30
2022-11-02T07:22:57.001Z,6.25
2022-11-02T07:25:27.819Z,6.45
2022-11-02T07:27:55.210Z,6.60
2022-11-02T07:30:22.398Z,6.68
2022-11-02T07:32:49.271Z,6.47
2022-11-02T07:35:17.704Z,5.20
2022-11-02T07:37:45.236Z,5.63
2022-11-02T07:40:14.129Z,6.53
2022-11-02T07:42:45.736Z,5.25
2022-11-02T07:45:12.818Z,4.50
2022-11-02T07:47:44.198Z,4.13
2022-11-02T07:50:12.400Z,4.05
2022-11-02T07:53:05.618Z,4.10
2022-11-02T07:55:32.814Z,4.25
2022-11-02T07:58:04.808Z,4.05
2022-11-02T08:00:34.320Z,4.40
2022-11-02T08:03:02.869Z,4.05
2022-11-02T08:05:31.222Z,4.00
2022-11-02T08:08:03.586Z,4.40
2022-11-02T08:10:35.428Z,3.95
2022-11-02T08:15:32.649Z,3.65
2022-11-02T08:18:16.874Z,3.85
2022-11-02T08:20:45.908Z,4.07
2022-11-02T08:23:13.385Z,3.55
2022-11-02T08:25:40.681Z,4.90
2022-11-02T08:28:11.497Z,3.88
2022-11-02T08:30:38.624Z,3.97
2022-11-02T08:33:09.873Z,4.05
2022-11-02T08:35:37.790Z,3.90
2022-11-02T08:38:05.952Z,4.63
2022-11-02T08:40:33.193Z,3.70
2022-11-02T08:43:02.245Z,4.38
2022-11-02T08:45:38.517Z,3.28
2022-11-02T08:48:17.168Z,3.60
2022-11-02T08:50:44.021Z,4.40
2022-11-02T08:53:10.714Z,4.32
2022-11-02T08:55:37.618Z,4.00
2022-11-02T08:58:04.725Z,3.67
2022-11-02T09:00:34.062Z,4.55
2022-11-02T09:03:15.423Z,3.95
2022-11-02T09:05:44.581Z,4.45
2022-11-02T09:08:17.691Z,4.50
2022-11-02T09:10:46.703Z,4.47
2022-11-02T09:13:15.272Z,3.25
2022-11-02T09:15:42.460Z,3.78
2022-11-02T09:18:09.777Z,4.50
2022-11-02T09:20:36.972Z,3.83
2022-11-02T09:23:04.289Z,4.93
2022-11-02T09:25:31.223Z,4.13
2022-11-02T09:27:58.814Z,4.28
2022-11-02T09:30:28.738Z,3.83
2022-11-02T09:32:59.936Z,4.50
2022-11-02T09:35:32.419Z,4.43
2022-11-02T09:37:59.414Z,3.75
2022-11-02T09:40:28.866Z,3.95
2022-11-02T09:43:01.793Z,4.20
2022-11-02T09:45:33.189Z,3.08
2022-11-02T09:48:28.779Z,3.45
2022-11-02T09:51:04.147Z,3.53
2022-11-02T09:53:46.763Z,3.88
2022-11-02T09:56:16.544Z,4.32
2022-11-02T09:58:45.809Z,3.58
2022-11-02T10:01:40.551Z,4.03
2022-11-02T10:04:10.408Z,4.35
2022-11-02T10:06:43.387Z,4.18
2022-11-02T10:09:37.675Z,3.58
2022-11-02T10:12:14.642Z,3.35
2022-11-02T10:15:16.504Z,4.15
2022-11-02T10:17:44.953Z,3.85
2022-11-02T10:20:25.054Z,4.00
2022-11-02T10:22:54.313Z,3.55
2022-11-02T10:25:22.115Z,3.75
2022-11-02T10:27:53.176Z,4.07
2022-11-02T10:30:21.435Z,3.65
2022-11-02T10:32:54.742Z,3.22
2022-11-02T10:38:54.181Z,4.20
2022-11-02T10:41:54.507Z,3.53
2022-11-02T10:44:29.406Z,3.20
2022-11-02T10:47:30.536Z,4.05
2022-11-02T10:50:08.170Z,3.90
2022-11-02T10:52:42.524Z,3.63
2022-11-02T10:55:55.103Z,4.35
2022-11-02T10:58:23.386Z,4.05
2022-11-02T11:00:51.543Z,3.65
2022-11-02T11:03:19.472Z,4.45
2022-11-02T11:06:03.581Z,4.28
2022-11-02T11:08:42.356Z,3.63
2022-11-02T11:11:23.003Z,3.17
2022-11-02T11:19:54.952Z,3.50
2022-11-02T11:22:32.880Z,3.50
2022-11-02T11:25:28.375Z,3.55
2022-11-02T11:27:59.938Z,3.95
2022-11-02T11:33:23.485Z,3.70
2022-11-02T11:35:51.583Z,3.50
2022-11-02T11:38:22.937Z,4.63
2022-11-02T11:40:55.119Z,4.10
2022-11-02T11:43:26.177Z,3.60
2022-11-02T11:46:05.211Z,4.60
2022-11-02T11:48:40.406Z,3.90
2022-11-02T11:51:31.569Z,3.63
2022-11-02T11:54:19.960Z,3.58
2022-11-02T11:56:48.057Z,3.65
2022-11-02T11:59:25.061Z,4.30
2022-11-02T12:01:57.033Z,3.60
2022-11-02T12:04:37.683Z,3.42
2022-11-02T12:07:29.488Z,3.88
2022-11-02T12:10:23.021Z,4.18
2022-11-02T12:13:20.725Z,4.00
2022-11-02T12:16:14.866Z,3.70
2022-11-02T12:18:44.625Z,4.75
2022-11-02T12:21:19.343Z,3.70
2022-11-02T12:24:02.080Z,5.22
2022-11-02T12:26:38.945Z,3.70
2022-11-02T12:29:18.007Z,3.85
2022-11-02T12:32:06.718Z,5.68
2022-11-02T12:34:39.812Z,4.32
2022-11-02T12:37:45.499Z,4.13
2022-11-02T12:40:28.900Z,4.28
2022-11-02T12:43:05.143Z,4.22
2022-11-02T12:45:50.016Z,4.03
2022-11-02T12:48:27.871Z,4.43
2022-11-02T12:51:14.872Z,3.97
2022-11-02T12:53:47.645Z,4.07
2022-11-02T12:56:26.665Z,4.18
2022-11-02T12:58:54.377Z,4.68
2022-11-02T13:01:41.236Z,4.53
2022-11-02T13:04:25.903Z,4.63
2022-11-02T13:07:04.594Z,4.70
2022-11-02T13:09:47.697Z,4.65
2022-11-02T13:12:22.648Z,4.22
2022-11-02T13:14:52.449Z,3.88
2022-11-02T13:17:44.436Z,4.43
2022-11-02T13:20:26.237Z,4.45
2022-11-02T13:23:03.801Z,4.05
2022-11-02T13:25:40.070Z,4.10
2022-11-02T13:28:16.157Z,5.22
2022-11-02T13:30:44.738Z,4.07
2022-11-02T13:33:17.658Z,4.10
2022-11-02T13:35:46.392Z,4.63
2022-11-02T13:38:13.194Z,4.97
2022-11-02T13:40:59.514Z,4.82
2022-11-02T13:44:07.282Z,4.03
2022-11-02T13:46:42.989Z,4.75
2022-11-02T13:49:48.668Z,5.38
2022-11-02T13:52:21.104Z,5.25
2022-11-02T13:57:38.973Z,4.75
2022-11-02T14:00:28.612Z,4.40
2022-11-02T14:03:13.038Z,5.35
2022-11-02T14:06:10.471Z,5.07
2022-11-02T14:09:07.209Z,4.85
2022-11-02T14:11:40.092Z,4.10
2022-11-02T14:14:28.201Z,4.15
2022-11-02T14:16:54.835Z,4.63
2022-11-02T14:19:47.744Z,3.85
2022-11-02T14:22:16.402Z,4.82
2022-11-02T14:24:43.045Z,4.03
2022-11-02T14:27:12.872Z,3.97
2022-11-02T14:29:42.565Z,4.57
2022-11-02T14:32:20.048Z,3.83
2022-11-02T14:34:52.826Z,4.55
2022-11-02T14:37:41.176Z,3.97
2022-11-02T14:40:20.400Z,4.50
2022-11-02T14:43:02.672Z,4.40
2022-11-02T14:46:09.352Z,3.70
2022-11-02T14:48:52.413Z,3.83
2022-11-02T14:51:26.618Z,4.13
2022-11-02T14:54:01.549Z,4.20
2022-11-02T14:56:50.006Z,4.47
2022-11-02T14:59:25.436Z,4.13
2022-11-02T15:01:58.013Z,4.85
2022-11-02T15:04:26.664Z,3.63
2022-11-02T15:06:59.826Z,4.15
2022-11-02T15:09:55.446Z,4.78
2022-11-02T15:12:33.918Z,4.50
2022-11-02T15:15:28.443Z,4.18
2022-11-02T15:18:13.805Z,5.43
2022-11-02T15:20:45.920Z,4.60
2022-11-02T15:23:29.823Z,4.35
2022-11-02T15:25:59.370Z,4.35
2022-11-02T15:28:32.621Z,3.88
2022-11-02T15:31:05.577Z,4.88
2022-11-02T15:33:43.236Z,4.38
2022-11-02T15:36:28.287Z,3.90
2022-11-02T15:38:55.511Z,4.00
2022-11-02T15:41:38.749Z,4.30
2022-11-02T15:44:20.784Z,4.05
2022-11-02T15:46:56.698Z,5.20
2022-11-02T15:49:56.922Z,4.80
2022-11-02T15:53:21.096Z,4.35
2022-11-02T15:55:59.758Z,5.00
2022-11-02T15:58:47.985Z,4.72
2022-11-02T16:01:17.998Z,4.90
2022-11-02T16:03:58.766Z,5.53
2022-11-02T16:06:34.046Z,5.70
2022-11-02T16:11:29.067Z,5.28
2022-11-02T16:14:32.518Z,6.28
2022-11-02T16:16:59.121Z,6.22
2022-11-02T16:19:25.994Z,5.72
2022-11-02T16:21:55.981Z,7.65
2022-11-02T16:24:25.507Z,6.28
2022-11-02T16:26:52.497Z,6.40
2022-11-02T16:29:28.255Z,6.47
2022-11-02T16:31:55.042Z,6.40
2022-11-02T16:34:25.723Z,6.95
2022-11-02T16:36:52.796Z,6.47
2022-11-02T16:39:32.052Z,6.82
2022-11-02T16:42:00.738Z,6.40
2022-11-02T16:44:34.841Z,6.93
2022-11-02T16:47:07.738Z,7.33
2022-11-02T16:49:55.162Z,7.53
2022-11-02T16:52:42.313Z,9.07
2022-11-02T16:55:33.813Z,7.55
2022-11-02T16:58:02.365Z,7.35
2022-11-02T17:00:29.389Z,8.30
2022-11-02T17:02:57.264Z,8.18
2022-11-02T17:05:26.094Z,8.52
2022-11-02T17:08:05.949Z,7.60
2022-11-02T17:10:34.873Z,8.10
2022-11-02T17:13:03.432Z,7.75
2022-11-02T17:15:32.432Z,8.90
2022-11-02T17:18:08.583Z,7.82
2022-11-02T17:20:37.644Z,8.50
2022-11-02T17:23:10.020Z,8.93
2022-11-02T17:25:39.650Z,8.63
2022-11-02T17:28:45.595Z,8.90
2022-11-02T17:31:22.865Z,8.27
2022-11-02T17:33:50.709Z,8.18
2022-11-02T17:36:18.165Z,7.70
2022-11-02T17:38:45.133Z,8.25
2022-11-02T17:41:34.394Z,9.10
2022-11-02T17:44:01.644Z,9.48
2022-11-02T17:46:29.195Z,9.00
2022-11-02T17:48:57.792Z,8.23
2022-11-02T17:51:25.914Z,8.38
2022-11-02T17:53:52.962Z,8.68
2022-11-02T17:56:19.894Z,8.00
2022-11-02T17:58:46.776Z,8.77
2022-11-02T18:01:14.268Z,9.25
2022-11-02T18:03:41.365Z,9.50
2022-11-02T18:06:08.779Z,9.07
2022-11-02T18:08:55.593Z,9.60
2022-11-02T18:11:26.283Z,8.85
2022-11-02T18:13:53.536Z,8.93
2022-11-02T18:16:20.381Z,8.82
2022-11-02T18:18:47.244Z,8.68
2022-11-02T18:21:14.245Z,9.30
2022-11-02T18:23:41.858Z,9.25
2022-11-02T18:26:12.359Z,9.18
2022-11-02T18:28:39.999Z,9.90
2022-11-02T18:31:07.920Z,9.63
2022-11-02T18:33:35.227Z,9.82
2022-11-02T18:36:07.031Z,8.90
2022-11-02T18:38:33.729Z,8.60
2022-11-02T18:41:28.285Z,9.00
2022-11-02T18:44:03.311Z,7.85
2022-11-02T18:46:32.682Z,9.75
2022-11-02T18:49:01.229Z,9.77
2022-11-02T18:51:28.380Z,9.60
2022-11-02T18:53:56.414Z,10.23
2022-11-02T18:56:23.426Z,9.57
2022-11-02T18:58:54.627Z,9.48
2022-11-02T19:01:22.912Z,9.45
2022-11-02T19:03:54.836Z,10.52
2022-11-02T19:06:41.349Z,10.02
2022-11-02T19:09:20.449Z,9.65
2022-11-02T19:12:05.309Z,9.95
2022-11-02T19:14:37.934Z,9.45
2022-11-02T19:17:05.987Z,9.27
2022-11-02T19:19:33.574Z,9.32
2022-11-02T19:37:22.503Z,10.77
2022-11-02T19:39:49.307Z,11.93
2022-11-02T19:42:16.018Z,12.25
2022-11-02T19:44:43.087Z,11.70
2022-11-02T19:47:11.001Z,11.48
2022-11-02T19:49:37.822Z,12.00
2022-11-02T19:52:04.674Z,10.32
2022-11-02T19:54:31.555Z,10.50
2022-11-02T19:56:58.437Z,11.38
2022-11-02T19:59:25.162Z,11.75
2022-11-02T20:01:52.588Z,9.77
2022-11-02T20:04:19.664Z,9.95
2022-11-02T20:06:46.571Z,10.88
2022-11-02T20:09:16.416Z,11.45
2022-11-02T20:11:45.441Z,10.40
2022-11-02T20:14:14.555Z,11.30
2022-11-02T20:16:42.244Z,12.25
2022-11-02T20:19:09.753Z,10.55
2022-11-02T20:21:42.756Z,10.57
2022-11-02T20:24:10.825Z,11.30
2022-11-02T20:26:41.183Z,12.60
2022-11-02T20:29:11.031Z,12.18
2022-11-02T20:31:40.710Z,11.48
2022-11-02T20:34:08.760Z,12.57
